KOXR Airport (Oxnard) Information

FAA: OXR - ICAO: KOXR

KOXR Airport Location

State California
County Ventura
City Oxnard
KOXR Airport is 1 miles west of Oxnard, CA.
Latitude 34-12-02.9050N
Longitude 119-12-26.0150W
Elevation 44ft

KOXR Airport METARs

METAR KOXR 181251Z 00000KT 9SM OVC037 13/13 A3004 RMK AO2 SLP172 T01330128
Altimeter 30.04"
Temperature 13.3°C (55.9°F)
Wind 0° at 0KT
Clouds overcast at 3,700ft
Visibility 9.0mi
Time observed: 2022-01-18T12:51:00Z

KOXR Airport Details

Status Operational
Activation April 1942
Ownership Public
Usage Public
Chart LOS ANGELES
ATC on-site Yes
Beacon schedule sunset-sunrise
Beacon color clear green

KOXR Airport Contacts

Owner COUNTY OF VENTURA
Owner address 555 AIRPORT WAY, CAMARILLO, CA 93010
Owner phone 805-388-4372
Manager AARON WRIGHT
Manager address 400 GLEN DRIVE, OROVILLE, CA 95966
Manager phone (916) 532-3085

KOXR Airport (Oxnard) Radio Frequencies

KOXR (Airport) Radio Frequencies

UNICOM N/A
Common traffic advisory frequency (CTAF) 134.95